createdAt,value
2019-04-23T00:02:30.172Z,18.07
2019-04-23T00:05:59.463Z,18.07
2019-04-23T00:12:11.879Z,13.53
2019-04-23T00:15:24.002Z,16.10
2019-04-23T00:18:37.719Z,12.33
2019-04-23T00:22:29.042Z,14.30
2019-04-23T00:25:49.737Z,13.53
2019-04-23T00:28:58.879Z,13.47
2019-04-23T00:32:21.780Z,15.00
2019-04-23T00:35:38.950Z,14.17
2019-04-23T00:38:45.490Z,17.63
2019-04-23T00:42:16.347Z,10.10
2019-04-23T00:45:44.602Z,13.70
2019-04-23T00:52:02.439Z,13.53
2019-04-23T00:55:12.904Z,15.57
2019-04-23T00:58:55.208Z,11.80
2019-04-23T01:02:01.847Z,12.80
2019-04-23T01:05:18.319Z,15.30
2019-04-23T01:11:48.198Z,12.83
2019-04-23T01:15:02.202Z,16.93
2019-04-23T01:18:19.082Z,12.70
2019-04-23T01:25:40.751Z,14.70
2019-04-23T01:32:34.875Z,12.43
2019-04-23T01:36:09.689Z,11.47
2019-04-23T01:39:09.347Z,14.30
2019-04-23T01:42:22.450Z,11.40
2019-04-23T01:52:12.837Z,12.23
2019-04-23T01:55:38.408Z,12.73
2019-04-23T02:02:12.309Z,12.00
2019-04-23T02:05:29.124Z,11.10
2019-04-23T02:08:47.092Z,13.90
2019-04-23T02:11:59.058Z,18.23
2019-04-23T02:18:22.686Z,15.23
2019-04-23T02:21:39.555Z,12.07
2019-04-23T02:25:35.259Z,12.50
2019-04-23T02:28:42.015Z,10.37
2019-04-23T02:38:45.602Z,12.57
2019-04-23T02:41:54.418Z,11.57
2019-04-23T02:44:56.338Z,13.57
2019-04-23T02:48:10.493Z,11.47
2019-04-23T02:51:15.406Z,13.77
2019-04-23T02:54:44.908Z,15.30
2019-04-23T03:01:39.696Z,20.77
2019-04-23T03:05:32.926Z,12.00
2019-04-23T03:09:36.787Z,12.43
2019-04-23T03:12:48.577Z,14.77
2019-04-23T03:16:38.462Z,15.40
2019-04-23T03:20:15.026Z,13.30
2019-04-23T03:26:51.550Z,11.80
2019-04-23T03:30:16.362Z,13.40
2019-04-23T03:40:59.452Z,11.20
2019-04-23T03:44:16.631Z,14.10
2019-04-23T03:47:32.866Z,14.30
2019-04-23T03:50:53.091Z,15.77
2019-04-23T03:57:24.532Z,14.53
2019-04-23T04:00:47.982Z,12.50
2019-04-23T04:10:25.327Z,14.13
2019-04-23T04:14:12.202Z,13.97
2019-04-23T04:17:14.414Z,13.07
2019-04-23T04:20:46.927Z,17.50
2019-04-23T04:24:11.278Z,13.90
2019-04-23T04:30:22.181Z,13.90
2019-04-23T04:43:06.767Z,15.27
2019-04-23T04:49:15.116Z,14.53
2019-04-23T05:02:15.582Z,15.83
2019-04-23T05:08:28.181Z,16.73
2019-04-23T05:11:47.786Z,18.73
2019-04-23T05:14:54.568Z,17.67
2019-04-23T05:21:21.487Z,18.07
2019-04-23T05:27:47.180Z,17.57
2019-04-23T05:30:52.183Z,13.20
2019-04-23T05:33:59.975Z,16.87
2019-04-23T05:37:13.016Z,15.10
2019-04-23T05:40:30.408Z,17.70
2019-04-23T05:49:51.750Z,17.00
2019-04-23T05:53:02.494Z,18.73
2019-04-23T05:56:06.556Z,16.57
2019-04-23T06:02:29.707Z,21.23
2019-04-23T06:05:36.276Z,17.60
2019-04-23T06:08:49.321Z,18.07
2019-04-23T06:14:57.482Z,18.43
2019-04-23T06:18:12.488Z,20.77
2019-04-23T06:21:15.292Z,15.77
2019-04-23T06:27:32.397Z,16.47
2019-04-23T06:33:46.837Z,18.37
2019-04-23T06:36:57.200Z,17.27
2019-04-23T06:43:30.296Z,18.90
2019-04-23T06:46:40.107Z,18.07
2019-04-23T06:49:44.244Z,15.50
2019-04-23T06:52:45.621Z,16.13
2019-04-23T06:55:55.797Z,19.10
2019-04-23T06:59:05.887Z,18.70
2019-04-23T07:02:22.326Z,17.83
2019-04-23T07:05:24.071Z,18.20
2019-04-23T07:08:44.387Z,16.93
2019-04-23T07:11:51.250Z,16.83
2019-04-23T07:18:00.021Z,17.53
2019-04-23T07:21:07.893Z,16.00
2019-04-23T07:27:13.201Z,24.63
2019-04-23T07:30:31.583Z,19.13
2019-04-23T07:33:28.083Z,21.23
2019-04-23T07:36:34.224Z,18.30
2019-04-23T07:40:23.114Z,17.33
2019-04-23T07:43:30.763Z,16.67
2019-04-23T07:47:07.356Z,17.73
2019-04-23T07:50:09.819Z,19.00
2019-04-23T07:53:07.134Z,16.90
2019-04-23T07:56:07.692Z,18.57
2019-04-23T07:59:18.960Z,18.80
2019-04-23T08:02:25.933Z,15.83
2019-04-23T08:05:26.526Z,17.53
2019-04-23T08:08:33.317Z,15.37
2019-04-23T08:11:40.080Z,14.20
2019-04-23T08:15:04.287Z,15.73
2019-04-23T08:18:06.868Z,13.60
2019-04-23T08:21:15.158Z,18.53
2019-04-23T08:24:50.595Z,12.23
2019-04-23T08:27:59.393Z,16.70
2019-04-23T08:31:03.614Z,15.37
2019-04-23T08:34:31.170Z,16.80
2019-04-23T08:37:24.738Z,13.73
2019-04-23T08:40:25.732Z,13.60
2019-04-23T08:49:59.321Z,12.57
2019-04-23T08:53:22.675Z,9.97
2019-04-23T08:56:23.805Z,16.03
2019-04-23T08:59:33.205Z,14.03
2019-04-23T09:02:50.124Z,12.97
2019-04-23T09:08:50.263Z,14.63
2019-04-23T09:12:03.279Z,12.30
2019-04-23T09:15:07.800Z,11.40
2019-04-23T09:18:16.660Z,10.97
2019-04-23T09:21:25.295Z,14.17
2019-04-23T09:24:25.873Z,11.73
2019-04-23T09:27:37.939Z,14.83
2019-04-23T09:30:40.409Z,12.73
2019-04-23T09:37:15.626Z,12.33
2019-04-23T09:41:03.019Z,12.67
2019-04-23T09:44:14.494Z,19.33
2019-04-23T09:47:26.394Z,9.93
2019-04-23T09:53:29.683Z,9.87
2019-04-23T09:59:51.406Z,13.63
2019-04-23T10:02:47.319Z,10.53
2019-04-23T10:05:51.184Z,13.60
2019-04-23T10:09:01.738Z,13.30
2019-04-23T10:12:05.138Z,14.60
2019-04-23T10:15:18.594Z,12.20
2019-04-23T10:18:18.308Z,14.27
2019-04-23T10:21:23.841Z,9.87
2019-04-23T10:24:28.640Z,13.03
2019-04-23T10:27:36.880Z,14.67
2019-04-23T10:30:45.025Z,10.67
2019-04-23T10:33:50.497Z,13.67
2019-04-23T10:36:55.638Z,17.70
2019-04-23T10:40:04.927Z,13.00
2019-04-23T10:43:07.486Z,13.63
2019-04-23T10:46:53.609Z,14.70
2019-04-23T10:50:35.561Z,12.87
2019-04-23T10:56:27.205Z,14.80
2019-04-23T11:03:00.619Z,15.70
2019-04-23T11:05:58.981Z,12.27
2019-04-23T11:09:09.987Z,11.23
2019-04-23T11:12:23.734Z,16.20
2019-04-23T11:15:26.809Z,14.90
2019-04-23T11:18:38.327Z,15.87
2019-04-23T11:21:42.482Z,16.30
2019-04-23T11:24:52.234Z,15.90
2019-04-23T11:27:52.538Z,18.03
2019-04-23T11:30:54.832Z,13.50
2019-04-23T11:34:08.184Z,17.53
2019-04-23T11:37:27.589Z,12.23
2019-04-23T11:40:21.147Z,15.43
2019-04-23T11:43:29.095Z,16.20
2019-04-23T11:52:51.727Z,15.83
2019-04-23T11:58:59.785Z,17.00
2019-04-23T12:02:38.989Z,15.53
2019-04-23T12:06:25.111Z,13.97
2019-04-23T12:12:59.049Z,12.70
2019-04-23T12:16:02.182Z,13.43
2019-04-23T12:19:40.294Z,12.30
2019-04-23T12:22:22.213Z,12.10
2019-04-23T12:25:25.063Z,17.57
2019-04-23T12:31:40.057Z,16.80
2019-04-23T12:34:57.979Z,15.17
2019-04-23T12:38:03.334Z,17.23
2019-04-23T12:41:04.206Z,14.37
2019-04-23T12:44:16.198Z,19.37
2019-04-23T12:47:36.383Z,14.00
2019-04-23T12:56:48.176Z,15.17
2019-04-23T12:59:44.708Z,10.77
2019-04-23T13:02:52.403Z,15.20
2019-04-23T13:05:51.393Z,10.73
2019-04-23T13:09:01.438Z,15.50
2019-04-23T13:12:25.646Z,16.47
2019-04-23T13:21:52.198Z,14.30
2019-04-23T13:25:14.679Z,16.03
2019-04-23T13:28:27.970Z,12.43
2019-04-23T13:31:28.977Z,9.63
2019-04-23T13:34:37.651Z,12.90
2019-04-23T13:37:44.490Z,11.60
2019-04-23T13:40:50.526Z,12.93
2019-04-23T13:43:42.676Z,12.73
2019-04-23T13:47:02.938Z,14.10
2019-04-23T13:50:30.785Z,16.63
2019-04-23T13:53:34.383Z,14.03
2019-04-23T13:57:03.195Z,16.57
2019-04-23T14:02:42.523Z,13.30
2019-04-23T14:06:10.710Z,12.83
2019-04-23T14:09:12.888Z,15.30
2019-04-23T14:12:17.784Z,14.40
2019-04-23T14:15:39.219Z,11.13
2019-04-23T14:21:42.394Z,14.27
2019-04-23T14:28:05.618Z,12.17
2019-04-23T14:31:04.759Z,14.90
2019-04-23T14:40:29.664Z,9.70
2019-04-23T14:43:30.928Z,15.60
2019-04-23T14:46:45.467Z,18.20
2019-04-23T14:49:59.352Z,15.40
2019-04-23T14:52:57.155Z,13.53
2019-04-23T14:56:00.376Z,13.60
2019-04-23T15:05:28.397Z,17.43
2019-04-23T15:08:30.253Z,15.37
2019-04-23T15:14:47.916Z,14.07
2019-04-23T15:21:19.229Z,16.60
2019-04-23T15:27:59.965Z,13.77
2019-04-23T15:30:14.387Z,14.77
2019-04-23T15:33:41.342Z,12.17
2019-04-23T15:39:49.476Z,15.63
2019-04-23T15:46:04.866Z,16.80
2019-04-23T15:52:33.159Z,17.70
2019-04-23T15:55:24.671Z,22.40
2019-04-23T15:58:33.505Z,18.00
2019-04-23T16:04:11.292Z,16.37
2019-04-23T16:07:31.816Z,27.27
2019-04-23T16:10:54.521Z,19.03
2019-04-23T16:20:31.448Z,14.23
2019-04-23T16:23:26.470Z,21.33
2019-04-23T16:26:37.353Z,16.30
2019-04-23T16:29:55.054Z,23.37
2019-04-23T16:33:10.412Z,22.77
2019-04-23T16:36:12.609Z,22.00
2019-04-23T16:39:20.160Z,25.40
2019-04-23T16:42:23.728Z,18.83
2019-04-23T16:49:05.700Z,23.43
2019-04-23T16:51:38.859Z,29.00
2019-04-23T16:58:01.650Z,25.30
2019-04-23T17:04:13.667Z,34.47
2019-04-23T17:07:06.866Z,21.47
2019-04-23T17:10:19.196Z,30.67
2019-04-23T17:13:34.554Z,23.93
2019-04-23T17:16:34.705Z,24.40
2019-04-23T17:19:48.045Z,26.00
2019-04-23T17:23:00.569Z,31.50
2019-04-23T17:26:04.083Z,26.80
2019-04-23T17:29:06.654Z,27.33
2019-04-23T17:32:28.524Z,20.37
2019-04-23T17:36:15.148Z,24.00
2019-04-23T17:39:27.440Z,29.23
2019-04-23T17:42:48.297Z,28.87
2019-04-23T17:45:56.707Z,25.83
2019-04-23T17:49:13.197Z,28.77
2019-04-23T17:58:30.131Z,29.37
2019-04-23T18:02:08.270Z,23.70
2019-04-23T18:04:45.280Z,22.70
2019-04-23T18:07:54.550Z,32.63
2019-04-23T18:11:05.977Z,18.83
2019-04-23T18:14:02.213Z,30.53
2019-04-23T18:17:13.389Z,32.50
2019-04-23T18:20:24.782Z,23.37
2019-04-23T18:23:32.099Z,30.27
2019-04-23T18:26:46.357Z,36.27
2019-04-23T18:30:02.610Z,24.07
2019-04-23T18:33:51.297Z,31.00
2019-04-23T18:36:25.021Z,28.30
2019-04-23T18:39:36.408Z,32.07
2019-04-23T18:42:45.165Z,33.43
2019-04-23T18:45:59.189Z,30.27
2019-04-23T18:48:57.805Z,26.90
2019-04-23T18:55:37.690Z,31.17
2019-04-23T18:58:31.518Z,30.97
2019-04-23T19:02:02.132Z,31.23
2019-04-23T19:05:15.158Z,28.40
2019-04-23T19:15:17.052Z,25.57
2019-04-23T19:18:18.735Z,32.77
2019-04-23T19:24:31.620Z,32.60
2019-04-23T19:27:45.515Z,25.30
2019-04-23T19:31:16.451Z,28.80
2019-04-23T19:37:18.365Z,32.33
2019-04-23T19:40:28.283Z,34.00
2019-04-23T19:43:34.394Z,36.67
2019-04-23T19:46:49.114Z,22.73
2019-04-23T19:50:06.284Z,26.73
2019-04-23T19:59:25.690Z,24.93
2019-04-23T20:02:46.646Z,27.03
2019-04-23T20:05:47.211Z,30.43
2019-04-23T20:09:30.881Z,28.27
2019-04-23T20:12:05.999Z,26.67
2019-04-23T20:15:07.692Z,30.30
2019-04-23T20:22:00.573Z,34.50
2019-04-23T20:28:41.360Z,28.27
2019-04-23T20:35:13.115Z,27.20
2019-04-23T20:41:57.986Z,31.50
2019-04-23T20:44:53.528Z,27.43
2019-04-23T20:51:34.398Z,21.90
2019-04-23T20:58:39.441Z,21.97
2019-04-23T21:02:13.634Z,26.23
2019-04-23T21:05:16.251Z,27.07
2019-04-23T21:08:50.794Z,29.47
2019-04-23T21:11:48.715Z,28.40
2019-04-23T21:21:20.353Z,25.37
2019-04-23T21:24:27.406Z,20.90
2019-04-23T21:27:53.558Z,24.73
2019-04-23T21:34:07.828Z,38.93
2019-04-23T21:37:49.822Z,26.47
2019-04-23T21:41:16.862Z,34.33
2019-04-23T21:47:27.033Z,30.50
2019-04-23T21:57:02.702Z,26.50
2019-04-23T22:00:26.231Z,29.33
2019-04-23T22:04:01.681Z,29.47
2019-04-23T22:13:51.254Z,30.07
2019-04-23T22:16:37.214Z,22.50
2019-04-23T22:19:38.409Z,24.97
2019-04-23T22:22:57.212Z,27.03
2019-04-23T22:32:15.548Z,23.17
2019-04-23T22:35:57.389Z,16.77
2019-04-23T22:38:59.577Z,21.20
2019-04-23T22:42:58.813Z,19.27
2019-04-23T22:45:53.210Z,24.00
2019-04-23T22:55:49.373Z,18.67
2019-04-23T22:59:10.504Z,20.27
2019-04-23T23:02:27.011Z,18.13
2019-04-23T23:06:10.744Z,15.77
2019-04-23T23:09:34.272Z,18.27
2019-04-23T23:16:28.735Z,16.77
2019-04-23T23:26:12.903Z,20.87
2019-04-23T23:30:05.124Z,24.57
2019-04-23T23:33:11.023Z,24.47
2019-04-23T23:36:12.490Z,22.33
2019-04-23T23:46:09.726Z,19.37
2019-04-23T23:49:09.285Z,18.63
2019-04-23T23:52:33.177Z,25.90
2019-04-23T23:55:31.830Z,20.90
